sensor_id;sensor_type;location;lat;lon;timestamp;P1;durP1;ratioP1;P2;durP2;ratioP2
71665;SDS011;59503;53.486;10.196;2023-03-07T00:00:09;26.30;;;10.10;;
71665;SDS011;59503;53.486;10.196;2023-03-07T00:02:36;30.58;;;12.02;;
71665;SDS011;59503;53.486;10.196;2023-03-07T00:05:02;35.60;;;12.00;;
71665;SDS011;59503;53.486;10.196;2023-03-07T00:07:27;33.20;;;11.50;;
71665;SDS011;59503;53.486;10.196;2023-03-07T00:09:53;33.17;;;11.73;;
71665;SDS011;59503;53.486;10.196;2023-03-07T00:12:19;37.97;;;12.65;;
71665;SDS011;59503;53.486;10.196;2023-03-07T00:14:46;35.47;;;12.70;;
71665;SDS011;59503;53.486;10.196;2023-03-07T00:17:11;37.60;;;12.73;;
71665;SDS011;59503;53.486;10.196;2023-03-07T00:19:37;38.47;;;13.30;;
71665;SDS011;59503;53.486;10.196;2023-03-07T00:22:02;41.67;;;14.57;;
71665;SDS011;59503;53.486;10.196;2023-03-07T00:24:28;38.00;;;13.90;;
71665;SDS011;59503;53.486;10.196;2023-03-07T00:26:53;43.47;;;14.70;;
71665;SDS011;59503;53.486;10.196;2023-03-07T00:29:18;42.97;;;15.23;;
71665;SDS011;59503;53.486;10.196;2023-03-07T00:31:44;49.23;;;16.63;;
71665;SDS011;59503;53.486;10.196;2023-03-07T00:34:09;53.83;;;16.83;;
71665;SDS011;59503;53.486;10.196;2023-03-07T00:36:35;47.88;;;15.50;;
71665;SDS011;59503;53.486;10.196;2023-03-07T00:39:00;52.40;;;16.60;;
71665;SDS011;59503;53.486;10.196;2023-03-07T00:41:26;47.83;;;16.63;;
71665;SDS011;59503;53.486;10.196;2023-03-07T00:43:53;43.83;;;16.60;;
71665;SDS011;59503;53.486;10.196;2023-03-07T00:46:20;51.40;;;15.73;;
71665;SDS011;59503;53.486;10.196;2023-03-07T00:48:47;56.85;;;18.65;;
71665;SDS011;59503;53.486;10.196;2023-03-07T00:51:14;54.80;;;17.83;;
71665;SDS011;59503;53.486;10.196;2023-03-07T00:53:44;53.65;;;16.80;;
71665;SDS011;59503;53.486;10.196;2023-03-07T00:56:14;50.67;;;17.35;;
71665;SDS011;59503;53.486;10.196;2023-03-07T00:58:44;56.38;;;19.25;;
71665;SDS011;59503;53.486;10.196;2023-03-07T01:01:11;53.80;;;17.57;;
71665;SDS011;59503;53.486;10.196;2023-03-07T01:03:38;54.63;;;18.20;;
71665;SDS011;59503;53.486;10.196;2023-03-07T01:06:05;59.78;;;19.50;;
71665;SDS011;59503;53.486;10.196;2023-03-07T01:08:32;57.95;;;18.67;;
71665;SDS011;59503;53.486;10.196;2023-03-07T01:10:59;62.77;;;18.93;;
71665;SDS011;59503;53.486;10.196;2023-03-07T01:13:26;56.17;;;19.13;;
71665;SDS011;59503;53.486;10.196;2023-03-07T01:15:52;60.00;;;19.53;;
71665;SDS011;59503;53.486;10.196;2023-03-07T01:18:17;62.03;;;19.63;;
71665;SDS011;59503;53.486;10.196;2023-03-07T01:20:43;57.20;;;19.00;;
71665;SDS011;59503;53.486;10.196;2023-03-07T01:23:09;57.63;;;19.37;;
71665;SDS011;59503;53.486;10.196;2023-03-07T01:25:38;56.20;;;18.90;;
71665;SDS011;59503;53.486;10.196;2023-03-07T01:28:07;55.10;;;19.92;;
71665;SDS011;59503;53.486;10.196;2023-03-07T01:30:39;61.97;;;19.30;;
71665;SDS011;59503;53.486;10.196;2023-03-07T01:33:05;60.05;;;19.85;;
71665;SDS011;59503;53.486;10.196;2023-03-07T01:35:35;59.80;;;19.33;;
71665;SDS011;59503;53.486;10.196;2023-03-07T01:38:01;61.78;;;21.35;;
71665;SDS011;59503;53.486;10.196;2023-03-07T01:40:27;59.20;;;20.90;;
71665;SDS011;59503;53.486;10.196;2023-03-07T01:42:52;66.53;;;20.67;;
71665;SDS011;59503;53.486;10.196;2023-03-07T01:48:16;62.80;;;20.92;;
71665;SDS011;59503;53.486;10.196;2023-03-07T01:50:42;68.82;;;21.27;;
71665;SDS011;59503;53.486;10.196;2023-03-07T01:53:08;64.53;;;20.60;;
71665;SDS011;59503;53.486;10.196;2023-03-07T01:55:34;58.20;;;19.60;;
71665;SDS011;59503;53.486;10.196;2023-03-07T01:58:07;63.25;;;20.02;;
71665;SDS011;59503;53.486;10.196;2023-03-07T02:00:37;64.28;;;20.55;;
71665;SDS011;59503;53.486;10.196;2023-03-07T02:05:43;53.43;;;18.37;;
71665;SDS011;59503;53.486;10.196;2023-03-07T02:08:20;58.20;;;19.88;;
71665;SDS011;59503;53.486;10.196;2023-03-07T02:10:48;63.75;;;19.15;;
71665;SDS011;59503;53.486;10.196;2023-03-07T02:13:13;55.70;;;18.17;;
71665;SDS011;59503;53.486;10.196;2023-03-07T02:15:40;58.05;;;19.27;;
71665;SDS011;59503;53.486;10.196;2023-03-07T02:18:05;51.60;;;17.20;;
71665;SDS011;59503;53.486;10.196;2023-03-07T02:20:39;50.57;;;18.90;;
71665;SDS011;59503;53.486;10.196;2023-03-07T02:23:15;53.10;;;17.88;;
71665;SDS011;59503;53.486;10.196;2023-03-07T02:28:30;59.70;;;19.15;;
71665;SDS011;59503;53.486;10.196;2023-03-07T02:30:56;53.50;;;18.07;;
71665;SDS011;59503;53.486;10.196;2023-03-07T02:33:23;56.67;;;18.77;;
71665;SDS011;59503;53.486;10.196;2023-03-07T02:35:51;55.07;;;18.60;;
71665;SDS011;59503;53.486;10.196;2023-03-07T02:38:20;58.10;;;19.20;;
71665;SDS011;59503;53.486;10.196;2023-03-07T02:40:47;56.00;;;18.52;;
71665;SDS011;59503;53.486;10.196;2023-03-07T02:43:12;61.55;;;19.27;;
71665;SDS011;59503;53.486;10.196;2023-03-07T02:45:38;53.63;;;18.53;;
71665;SDS011;59503;53.486;10.196;2023-03-07T02:48:03;64.23;;;19.73;;
71665;SDS011;59503;53.486;10.196;2023-03-07T02:50:29;57.30;;;18.40;;
71665;SDS011;59503;53.486;10.196;2023-03-07T02:52:54;50.97;;;16.20;;
71665;SDS011;59503;53.486;10.196;2023-03-07T02:55:20;52.95;;;18.55;;
71665;SDS011;59503;53.486;10.196;2023-03-07T02:57:46;58.17;;;18.93;;
71665;SDS011;59503;53.486;10.196;2023-03-07T03:00:11;60.80;;;16.93;;
71665;SDS011;59503;53.486;10.196;2023-03-07T03:02:37;51.67;;;17.43;;
71665;SDS011;59503;53.486;10.196;2023-03-07T03:05:02;54.50;;;17.43;;
71665;SDS011;59503;53.486;10.196;2023-03-07T03:07:28;53.92;;;18.65;;
71665;SDS011;59503;53.486;10.196;2023-03-07T03:09:54;50.03;;;18.00;;
71665;SDS011;59503;53.486;10.196;2023-03-07T03:12:19;57.47;;;19.13;;
71665;SDS011;59503;53.486;10.196;2023-03-07T03:14:45;54.73;;;18.57;;
71665;SDS011;59503;53.486;10.196;2023-03-07T03:17:10;64.67;;;19.53;;
71665;SDS011;59503;53.486;10.196;2023-03-07T03:19:36;59.50;;;19.73;;
71665;SDS011;59503;53.486;10.196;2023-03-07T03:22:01;49.43;;;17.80;;
71665;SDS011;59503;53.486;10.196;2023-03-07T03:24:27;56.03;;;18.08;;
71665;SDS011;59503;53.486;10.196;2023-03-07T03:26:55;56.63;;;18.90;;
71665;SDS011;59503;53.486;10.196;2023-03-07T03:29:21;55.45;;;19.70;;
71665;SDS011;59503;53.486;10.196;2023-03-07T03:31:47;50.07;;;17.63;;
71665;SDS011;59503;53.486;10.196;2023-03-07T03:34:13;61.78;;;20.65;;
71665;SDS011;59503;53.486;10.196;2023-03-07T03:36:38;58.20;;;18.47;;
71665;SDS011;59503;53.486;10.196;2023-03-07T03:39:04;59.53;;;19.20;;
71665;SDS011;59503;53.486;10.196;2023-03-07T03:41:35;71.13;;;20.65;;
71665;SDS011;59503;53.486;10.196;2023-03-07T03:44:01;63.00;;;18.40;;
71665;SDS011;59503;53.486;10.196;2023-03-07T03:46:27;60.88;;;18.98;;
71665;SDS011;59503;53.486;10.196;2023-03-07T03:48:53;53.80;;;18.03;;
71665;SDS011;59503;53.486;10.196;2023-03-07T03:51:19;50.77;;;17.03;;
71665;SDS011;59503;53.486;10.196;2023-03-07T03:53:45;56.20;;;17.50;;
71665;SDS011;59503;53.486;10.196;2023-03-07T03:56:12;48.57;;;16.33;;
71665;SDS011;59503;53.486;10.196;2023-03-07T03:58:39;50.67;;;16.83;;
71665;SDS011;59503;53.486;10.196;2023-03-07T04:01:06;50.65;;;17.73;;
71665;SDS011;59503;53.486;10.196;2023-03-07T04:03:37;54.40;;;15.88;;
71665;SDS011;59503;53.486;10.196;2023-03-07T04:06:07;49.80;;;16.63;;
71665;SDS011;59503;53.486;10.196;2023-03-07T04:08:38;52.20;;;15.83;;
71665;SDS011;59503;53.486;10.196;2023-03-07T04:11:03;44.70;;;15.13;;
71665;SDS011;59503;53.486;10.196;2023-03-07T04:13:30;46.38;;;15.10;;
71665;SDS011;59503;53.486;10.196;2023-03-07T04:15:56;51.70;;;16.38;;
71665;SDS011;59503;53.486;10.196;2023-03-07T04:18:22;48.93;;;15.53;;
71665;SDS011;59503;53.486;10.196;2023-03-07T04:20:49;41.10;;;13.77;;
71665;SDS011;59503;53.486;10.196;2023-03-07T04:23:15;48.45;;;15.43;;
71665;SDS011;59503;53.486;10.196;2023-03-07T04:25:49;43.65;;;13.82;;
71665;SDS011;59503;53.486;10.196;2023-03-07T04:28:16;41.17;;;14.07;;
71665;SDS011;59503;53.486;10.196;2023-03-07T04:30:43;47.17;;;14.10;;
71665;SDS011;59503;53.486;10.196;2023-03-07T04:33:09;41.15;;;13.52;;
71665;SDS011;59503;53.486;10.196;2023-03-07T04:35:37;35.58;;;13.02;;
71665;SDS011;59503;53.486;10.196;2023-03-07T04:38:03;39.80;;;13.07;;
71665;SDS011;59503;53.486;10.196;2023-03-07T04:40:28;35.57;;;12.23;;
71665;SDS011;59503;53.486;10.196;2023-03-07T04:42:54;40.73;;;13.33;;
71665;SDS011;59503;53.486;10.196;2023-03-07T04:45:19;38.27;;;13.20;;
71665;SDS011;59503;53.486;10.196;2023-03-07T04:47:45;37.70;;;12.20;;
71665;SDS011;59503;53.486;10.196;2023-03-07T04:50:10;34.23;;;11.40;;
71665;SDS011;59503;53.486;10.196;2023-03-07T04:52:35;31.63;;;11.00;;
71665;SDS011;59503;53.486;10.196;2023-03-07T04:55:01;27.20;;;10.23;;
71665;SDS011;59503;53.486;10.196;2023-03-07T04:57:26;24.93;;;9.30;;
71665;SDS011;59503;53.486;10.196;2023-03-07T04:59:52;26.23;;;8.10;;
71665;SDS011;59503;53.486;10.196;2023-03-07T05:02:17;31.87;;;9.27;;
71665;SDS011;59503;53.486;10.196;2023-03-07T05:04:43;24.17;;;7.90;;
71665;SDS011;59503;53.486;10.196;2023-03-07T05:07:08;24.40;;;8.10;;
71665;SDS011;59503;53.486;10.196;2023-03-07T05:09:34;19.07;;;7.63;;
71665;SDS011;59503;53.486;10.196;2023-03-07T05:11:59;18.43;;;7.50;;
71665;SDS011;59503;53.486;10.196;2023-03-07T05:14:24;21.53;;;6.80;;
71665;SDS011;59503;53.486;10.196;2023-03-07T05:16:50;13.77;;;5.10;;
71665;SDS011;59503;53.486;10.196;2023-03-07T05:19:15;13.13;;;5.03;;
71665;SDS011;59503;53.486;10.196;2023-03-07T05:21:41;12.43;;;4.63;;
71665;SDS011;59503;53.486;10.196;2023-03-07T05:24:08;14.50;;;4.90;;
71665;SDS011;59503;53.486;10.196;2023-03-07T05:26:34;19.80;;;4.93;;
71665;SDS011;59503;53.486;10.196;2023-03-07T05:28:59;14.03;;;4.87;;
71665;SDS011;59503;53.486;10.196;2023-03-07T05:31:25;13.10;;;4.23;;
71665;SDS011;59503;53.486;10.196;2023-03-07T05:33:50;18.23;;;5.13;;
71665;SDS011;59503;53.486;10.196;2023-03-07T05:36:15;14.00;;;4.80;;
71665;SDS011;59503;53.486;10.196;2023-03-07T05:38:41;13.67;;;4.20;;
71665;SDS011;59503;53.486;10.196;2023-03-07T05:41:07;14.50;;;4.05;;
71665;SDS011;59503;53.486;10.196;2023-03-07T05:43:32;11.27;;;3.37;;
71665;SDS011;59503;53.486;10.196;2023-03-07T05:45:57;10.00;;;2.50;;
71665;SDS011;59503;53.486;10.196;2023-03-07T05:48:23;7.87;;;2.50;;
71665;SDS011;59503;53.486;10.196;2023-03-07T05:50:48;16.95;;;2.35;;
71665;SDS011;59503;53.486;10.196;2023-03-07T05:53:14;13.10;;;2.47;;
71665;SDS011;59503;53.486;10.196;2023-03-07T05:55:39;7.20;;;2.27;;
71665;SDS011;59503;53.486;10.196;2023-03-07T05:58:04;7.90;;;2.53;;
71665;SDS011;59503;53.486;10.196;2023-03-07T06:00:30;13.77;;;2.15;;
71665;SDS011;59503;53.486;10.196;2023-03-07T06:02:55;9.67;;;2.43;;
71665;SDS011;59503;53.486;10.196;2023-03-07T06:05:21;13.52;;;2.38;;
71665;SDS011;59503;53.486;10.196;2023-03-07T06:07:47;8.03;;;1.73;;
71665;SDS011;59503;53.486;10.196;2023-03-07T06:10:13;7.68;;;1.40;;
71665;SDS011;59503;53.486;10.196;2023-03-07T06:12:38;8.23;;;1.53;;
71665;SDS011;59503;53.486;10.196;2023-03-07T06:15:04;7.60;;;1.50;;
71665;SDS011;59503;53.486;10.196;2023-03-07T06:17:30;3.88;;;1.58;;
71665;SDS011;59503;53.486;10.196;2023-03-07T06:19:55;8.33;;;1.70;;
71665;SDS011;59503;53.486;10.196;2023-03-07T06:22:21;4.87;;;1.30;;
71665;SDS011;59503;53.486;10.196;2023-03-07T06:24:46;9.90;;;1.50;;
71665;SDS011;59503;53.486;10.196;2023-03-07T06:27:12;11.47;;;1.43;;
71665;SDS011;59503;53.486;10.196;2023-03-07T06:29:38;6.88;;;1.33;;
71665;SDS011;59503;53.486;10.196;2023-03-07T06:32:03;6.90;;;1.10;;
71665;SDS011;59503;53.486;10.196;2023-03-07T06:34:29;9.60;;;1.30;;
71665;SDS011;59503;53.486;10.196;2023-03-07T06:36:55;12.10;;;1.57;;
71665;SDS011;59503;53.486;10.196;2023-03-07T06:39:20;6.80;;;1.10;;
71665;SDS011;59503;53.486;10.196;2023-03-07T06:41:46;9.38;;;1.10;;
71665;SDS011;59503;53.486;10.196;2023-03-07T06:44:13;5.77;;;0.70;;
71665;SDS011;59503;53.486;10.196;2023-03-07T06:46:38;8.43;;;0.77;;
71665;SDS011;59503;53.486;10.196;2023-03-07T06:49:04;11.53;;;0.77;;
71665;SDS011;59503;53.486;10.196;2023-03-07T06:51:29;5.38;;;0.60;;
71665;SDS011;59503;53.486;10.196;2023-03-07T06:53:55;8.00;;;1.00;;
71665;SDS011;59503;53.486;10.196;2023-03-07T06:56:20;12.67;;;0.97;;
71665;SDS011;59503;53.486;10.196;2023-03-07T06:58:45;6.23;;;0.93;;
71665;SDS011;59503;53.486;10.196;2023-03-07T07:01:15;7.80;;;1.07;;
71665;SDS011;59503;53.486;10.196;2023-03-07T07:03:43;4.93;;;0.82;;
71665;SDS011;59503;53.486;10.196;2023-03-07T07:06:09;4.90;;;0.60;;
71665;SDS011;59503;53.486;10.196;2023-03-07T07:08:35;10.45;;;1.15;;
71665;SDS011;59503;53.486;10.196;2023-03-07T07:11:00;6.47;;;0.77;;
71665;SDS011;59503;53.486;10.196;2023-03-07T07:13:25;5.47;;;0.53;;
71665;SDS011;59503;53.486;10.196;2023-03-07T07:15:51;6.63;;;0.77;;
71665;SDS011;59503;53.486;10.196;2023-03-07T07:18:16;3.73;;;0.57;;
71665;SDS011;59503;53.486;10.196;2023-03-07T07:20:41;14.97;;;2.00;;
71665;SDS011;59503;53.486;10.196;2023-03-07T07:23:07;5.37;;;0.70;;
71665;SDS011;59503;53.486;10.196;2023-03-07T07:25:32;7.77;;;0.90;;
71665;SDS011;59503;53.486;10.196;2023-03-07T07:27:57;10.03;;;0.70;;
71665;SDS011;59503;53.486;10.196;2023-03-07T07:30:23;9.23;;;0.70;;
71665;SDS011;59503;53.486;10.196;2023-03-07T07:32:48;4.65;;;0.30;;
71665;SDS011;59503;53.486;10.196;2023-03-07T07:35:14;7.50;;;0.47;;
71665;SDS011;59503;53.486;10.196;2023-03-07T07:37:40;8.82;;;0.70;;
71665;SDS011;59503;53.486;10.196;2023-03-07T07:40:06;6.38;;;0.40;;
71665;SDS011;59503;53.486;10.196;2023-03-07T07:42:35;4.80;;;0.55;;
71665;SDS011;59503;53.486;10.196;2023-03-07T07:45:01;7.37;;;0.97;;
71665;SDS011;59503;53.486;10.196;2023-03-07T07:47:26;4.22;;;0.45;;
71665;SDS011;59503;53.486;10.196;2023-03-07T07:49:52;7.70;;;0.77;;
71665;SDS011;59503;53.486;10.196;2023-03-07T07:52:17;5.40;;;0.40;;
71665;SDS011;59503;53.486;10.196;2023-03-07T07:54:42;3.80;;;0.73;;
71665;SDS011;59503;53.486;10.196;2023-03-07T07:57:08;9.57;;;0.87;;
71665;SDS011;59503;53.486;10.196;2023-03-07T07:59:33;6.60;;;0.60;;
71665;SDS011;59503;53.486;10.196;2023-03-07T08:01:59;7.47;;;1.00;;
71665;SDS011;59503;53.486;10.196;2023-03-07T08:04:25;2.90;;;0.40;;
71665;SDS011;59503;53.486;10.196;2023-03-07T08:06:51;9.80;;;1.47;;
71665;SDS011;59503;53.486;10.196;2023-03-07T08:09:16;10.73;;;0.73;;
71665;SDS011;59503;53.486;10.196;2023-03-07T08:11:42;5.25;;;0.80;;
71665;SDS011;59503;53.486;10.196;2023-03-07T08:14:08;3.75;;;0.57;;
71665;SDS011;59503;53.486;10.196;2023-03-07T08:16:33;4.53;;;0.63;;
71665;SDS011;59503;53.486;10.196;2023-03-07T08:18:59;6.47;;;0.40;;
71665;SDS011;59503;53.486;10.196;2023-03-07T08:21:25;9.30;;;0.50;;
71665;SDS011;59503;53.486;10.196;2023-03-07T08:23:54;7.53;;;0.63;;
71665;SDS011;59503;53.486;10.196;2023-03-07T08:26:20;9.63;;;0.75;;
71665;SDS011;59503;53.486;10.196;2023-03-07T08:28:46;5.27;;;0.60;;
71665;SDS011;59503;53.486;10.196;2023-03-07T08:31:15;8.35;;;0.77;;
71665;SDS011;59503;53.486;10.196;2023-03-07T08:33:45;6.25;;;0.50;;
71665;SDS011;59503;53.486;10.196;2023-03-07T08:36:12;10.68;;;0.50;;
71665;SDS011;59503;53.486;10.196;2023-03-07T08:38:38;6.47;;;0.80;;
71665;SDS011;59503;53.486;10.196;2023-03-07T08:41:04;9.07;;;1.58;;
71665;SDS011;59503;53.486;10.196;2023-03-07T08:43:31;6.47;;;0.50;;
71665;SDS011;59503;53.486;10.196;2023-03-07T08:45:58;9.48;;;0.85;;
71665;SDS011;59503;53.486;10.196;2023-03-07T08:48:24;10.60;;;0.75;;
71665;SDS011;59503;53.486;10.196;2023-03-07T08:50:50;5.57;;;0.73;;
71665;SDS011;59503;53.486;10.196;2023-03-07T08:53:17;5.78;;;0.40;;
71665;SDS011;59503;53.486;10.196;2023-03-07T08:55:42;6.83;;;0.50;;
71665;SDS011;59503;53.486;10.196;2023-03-07T08:58:08;5.93;;;0.47;;
71665;SDS011;59503;53.486;10.196;2023-03-07T09:00:34;4.40;;;0.57;;
71665;SDS011;59503;53.486;10.196;2023-03-07T09:03:00;5.53;;;0.85;;
71665;SDS011;59503;53.486;10.196;2023-03-07T09:05:26;5.13;;;0.53;;
71665;SDS011;59503;53.486;10.196;2023-03-07T09:07:52;11.40;;;1.13;;
71665;SDS011;59503;53.486;10.196;2023-03-07T09:10:18;8.48;;;0.65;;
71665;SDS011;59503;53.486;10.196;2023-03-07T09:12:45;6.97;;;1.00;;
71665;SDS011;59503;53.486;10.196;2023-03-07T09:15:11;5.00;;;0.60;;
71665;SDS011;59503;53.486;10.196;2023-03-07T09:17:37;6.97;;;0.65;;
71665;SDS011;59503;53.486;10.196;2023-03-07T09:20:04;14.23;;;0.65;;
71665;SDS011;59503;53.486;10.196;2023-03-07T09:22:31;10.90;;;0.70;;
71665;SDS011;59503;53.486;10.196;2023-03-07T09:24:56;11.47;;;0.90;;
71665;SDS011;59503;53.486;10.196;2023-03-07T09:27:22;4.97;;;0.60;;
71665;SDS011;59503;53.486;10.196;2023-03-07T09:29:47;8.55;;;0.70;;
71665;SDS011;59503;53.486;10.196;2023-03-07T09:32:12;9.53;;;1.10;;
71665;SDS011;59503;53.486;10.196;2023-03-07T09:34:38;9.87;;;1.37;;
71665;SDS011;59503;53.486;10.196;2023-03-07T09:37:03;11.20;;;0.80;;
71665;SDS011;59503;53.486;10.196;2023-03-07T09:39:29;9.30;;;0.50;;
71665;SDS011;59503;53.486;10.196;2023-03-07T09:41:58;8.27;;;0.80;;
71665;SDS011;59503;53.486;10.196;2023-03-07T09:50:10;9.82;;;1.27;;
71665;SDS011;59503;53.486;10.196;2023-03-07T09:52:40;6.03;;;0.93;;
71665;SDS011;59503;53.486;10.196;2023-03-07T09:55:10;5.00;;;0.73;;
71665;SDS011;59503;53.486;10.196;2023-03-07T10:00:40;10.25;;;1.17;;
71665;SDS011;59503;53.486;10.196;2023-03-07T10:06:17;8.35;;;1.15;;
71665;SDS011;59503;53.486;10.196;2023-03-07T10:08:49;11.95;;;0.80;;
71665;SDS011;59503;53.486;10.196;2023-03-07T10:14:17;10.43;;;1.67;;
71665;SDS011;59503;53.486;10.196;2023-03-07T10:16:58;5.80;;;0.40;;
71665;SDS011;59503;53.486;10.196;2023-03-07T10:27:31;12.73;;;0.95;;
71665;SDS011;59503;53.486;10.196;2023-03-07T10:29:56;9.30;;;0.67;;
71665;SDS011;59503;53.486;10.196;2023-03-07T10:32:37;4.30;;;0.75;;
71665;SDS011;59503;53.486;10.196;2023-03-07T10:40:18;3.60;;;0.57;;
71665;SDS011;59503;53.486;10.196;2023-03-07T10:42:48;4.67;;;0.50;;
71665;SDS011;59503;53.486;10.196;2023-03-07T10:45:13;6.97;;;0.77;;
71665;SDS011;59503;53.486;10.196;2023-03-07T10:47:40;4.37;;;0.30;;
71665;SDS011;59503;53.486;10.196;2023-03-07T10:53:15;7.55;;;0.90;;
71665;SDS011;59503;53.486;10.196;2023-03-07T10:55:51;3.90;;;0.47;;
71665;SDS011;59503;53.486;10.196;2023-03-07T10:58:31;1.98;;;0.40;;
71665;SDS011;59503;53.486;10.196;2023-03-07T11:03:37;3.60;;;0.60;;
71665;SDS011;59503;53.486;10.196;2023-03-07T11:06:05;4.20;;;0.50;;
71665;SDS011;59503;53.486;10.196;2023-03-07T11:08:32;4.15;;;0.50;;
71665;SDS011;59503;53.486;10.196;2023-03-07T11:10:59;4.95;;;0.57;;
71665;SDS011;59503;53.486;10.196;2023-03-07T11:13:26;6.78;;;0.90;;
71665;SDS011;59503;53.486;10.196;2023-03-07T11:16:07;3.77;;;0.57;;
71665;SDS011;59503;53.486;10.196;2023-03-07T11:18:53;6.05;;;0.50;;
71665;SDS011;59503;53.486;10.196;2023-03-07T11:21:26;5.97;;;0.50;;
71665;SDS011;59503;53.486;10.196;2023-03-07T11:24:00;5.53;;;0.77;;
71665;SDS011;59503;53.486;10.196;2023-03-07T11:26:39;7.45;;;0.50;;
71665;SDS011;59503;53.486;10.196;2023-03-07T11:29:12;3.83;;;0.47;;
71665;SDS011;59503;53.486;10.196;2023-03-07T11:34:21;5.18;;;0.80;;
71665;SDS011;59503;53.486;10.196;2023-03-07T11:36:53;9.83;;;0.50;;
71665;SDS011;59503;53.486;10.196;2023-03-07T11:39:28;4.50;;;0.55;;
71665;SDS011;59503;53.486;10.196;2023-03-07T11:42:09;8.60;;;0.50;;
71665;SDS011;59503;53.486;10.196;2023-03-07T11:47:37;9.05;;;1.42;;
71665;SDS011;59503;53.486;10.196;2023-03-07T11:50:26;4.83;;;0.93;;
71665;SDS011;59503;53.486;10.196;2023-03-07T11:52:59;6.30;;;0.70;;
71665;SDS011;59503;53.486;10.196;2023-03-07T12:10:08;11.85;;;0.80;;
71665;SDS011;59503;53.486;10.196;2023-03-07T12:15:34;6.80;;;0.98;;
71665;SDS011;59503;53.486;10.196;2023-03-07T12:23:32;3.95;;;0.60;;
71665;SDS011;59503;53.486;10.196;2023-03-07T12:26:25;8.15;;;0.68;;
71665;SDS011;59503;53.486;10.196;2023-03-07T12:32:06;6.07;;;0.67;;
71665;SDS011;59503;53.486;10.196;2023-03-07T12:34:37;6.75;;;0.90;;
71665;SDS011;59503;53.486;10.196;2023-03-07T12:37:11;9.30;;;0.90;;
71665;SDS011;59503;53.486;10.196;2023-03-07T12:47:24;10.52;;;0.93;;
71665;SDS011;59503;53.486;10.196;2023-03-07T12:50:11;3.83;;;0.63;;
71665;SDS011;59503;53.486;10.196;2023-03-07T12:52:43;6.95;;;0.63;;
71665;SDS011;59503;53.486;10.196;2023-03-07T12:58:05;2.97;;;0.55;;
71665;SDS011;59503;53.486;10.196;2023-03-07T13:00:39;3.90;;;0.57;;
71665;SDS011;59503;53.486;10.196;2023-03-07T13:03:14;5.33;;;0.50;;
71665;SDS011;59503;53.486;10.196;2023-03-07T13:05:47;7.50;;;0.68;;
71665;SDS011;59503;53.486;10.196;2023-03-07T13:08:16;3.33;;;0.57;;
71665;SDS011;59503;53.486;10.196;2023-03-07T13:10:47;6.22;;;0.70;;
71665;SDS011;59503;53.486;10.196;2023-03-07T13:13:59;6.83;;;0.70;;
71665;SDS011;59503;53.486;10.196;2023-03-07T13:16:04;6.97;;;0.90;;
71665;SDS011;59503;53.486;10.196;2023-03-07T13:18:30;4.40;;;0.50;;
71665;SDS011;59503;53.486;10.196;2023-03-07T13:21:06;7.63;;;0.40;;
71665;SDS011;59503;53.486;10.196;2023-03-07T13:23:36;5.80;;;0.55;;
71665;SDS011;59503;53.486;10.196;2023-03-07T13:26:05;8.40;;;0.50;;
71665;SDS011;59503;53.486;10.196;2023-03-07T13:28:36;2.65;;;0.80;;
71665;SDS011;59503;53.486;10.196;2023-03-07T13:33:41;7.95;;;0.70;;
71665;SDS011;59503;53.486;10.196;2023-03-07T13:38:55;6.90;;;0.60;;
71665;SDS011;59503;53.486;10.196;2023-03-07T13:46:55;8.23;;;0.60;;
71665;SDS011;59503;53.486;10.196;2023-03-07T13:54:49;10.27;;;1.00;;
71665;SDS011;59503;53.486;10.196;2023-03-07T13:57:16;6.00;;;0.50;;
71665;SDS011;59503;53.486;10.196;2023-03-07T13:59:47;2.08;;;0.50;;
71665;SDS011;59503;53.486;10.196;2023-03-07T14:02:15;5.63;;;0.68;;
71665;SDS011;59503;53.486;10.196;2023-03-07T14:04:42;7.13;;;0.60;;
71665;SDS011;59503;53.486;10.196;2023-03-07T14:07:26;9.05;;;0.70;;
71665;SDS011;59503;53.486;10.196;2023-03-07T14:10:01;7.80;;;0.70;;
71665;SDS011;59503;53.486;10.196;2023-03-07T14:17:50;5.60;;;1.13;;
71665;SDS011;59503;53.486;10.196;2023-03-07T14:26:18;6.73;;;0.90;;
71665;SDS011;59503;53.486;10.196;2023-03-07T14:29:00;4.03;;;0.50;;
71665;SDS011;59503;53.486;10.196;2023-03-07T14:31:35;6.60;;;0.80;;
71665;SDS011;59503;53.486;10.196;2023-03-07T14:36:55;4.75;;;0.45;;
71665;SDS011;59503;53.486;10.196;2023-03-07T14:39:24;5.30;;;0.47;;
71665;SDS011;59503;53.486;10.196;2023-03-07T14:50:16;5.35;;;0.28;;
71665;SDS011;59503;53.486;10.196;2023-03-07T14:52:44;6.20;;;0.50;;
71665;SDS011;59503;53.486;10.196;2023-03-07T14:55:13;4.40;;;0.60;;
71665;SDS011;59503;53.486;10.196;2023-03-07T14:57:42;4.65;;;0.60;;
71665;SDS011;59503;53.486;10.196;2023-03-07T15:00:15;2.55;;;0.85;;
71665;SDS011;59503;53.486;10.196;2023-03-07T15:02:50;2.95;;;0.50;;
71665;SDS011;59503;53.486;10.196;2023-03-07T15:05:21;7.20;;;1.13;;
71665;SDS011;59503;53.486;10.196;2023-03-07T15:07:49;2.55;;;0.32;;
71665;SDS011;59503;53.486;10.196;2023-03-07T15:10:19;3.25;;;0.60;;
71665;SDS011;59503;53.486;10.196;2023-03-07T15:12:49;4.97;;;0.30;;
71665;SDS011;59503;53.486;10.196;2023-03-07T15:17:54;3.23;;;0.40;;
71665;SDS011;59503;53.486;10.196;2023-03-07T15:20:27;0.82;;;0.20;;
71665;SDS011;59503;53.486;10.196;2023-03-07T15:23:05;4.38;;;0.30;;
71665;SDS011;59503;53.486;10.196;2023-03-07T15:25:33;2.92;;;0.57;;
71665;SDS011;59503;53.486;10.196;2023-03-07T15:28:06;4.00;;;0.30;;
71665;SDS011;59503;53.486;10.196;2023-03-07T15:30:41;2.10;;;0.40;;
71665;SDS011;59503;53.486;10.196;2023-03-07T15:33:14;2.65;;;0.82;;
71665;SDS011;59503;53.486;10.196;2023-03-07T15:36:03;5.18;;;0.52;;
71665;SDS011;59503;53.486;10.196;2023-03-07T15:38:33;5.75;;;0.40;;
71665;SDS011;59503;53.486;10.196;2023-03-07T15:40:59;3.47;;;0.53;;
71665;SDS011;59503;53.486;10.196;2023-03-07T15:43:25;3.03;;;1.13;;
71665;SDS011;59503;53.486;10.196;2023-03-07T15:46:02;7.70;;;0.40;;
71665;SDS011;59503;53.486;10.196;2023-03-07T15:48:37;4.10;;;0.60;;
71665;SDS011;59503;53.486;10.196;2023-03-07T15:51:15;4.60;;;0.60;;
71665;SDS011;59503;53.486;10.196;2023-03-07T15:53:43;4.32;;;0.30;;
71665;SDS011;59503;53.486;10.196;2023-03-07T15:56:21;6.22;;;0.93;;
71665;SDS011;59503;53.486;10.196;2023-03-07T15:58:57;4.32;;;0.40;;
71665;SDS011;59503;53.486;10.196;2023-03-07T16:01:26;3.77;;;0.40;;
71665;SDS011;59503;53.486;10.196;2023-03-07T16:03:53;5.63;;;0.68;;
71665;SDS011;59503;53.486;10.196;2023-03-07T16:09:09;1.67;;;0.10;;
71665;SDS011;59503;53.486;10.196;2023-03-07T16:11:37;2.83;;;0.20;;
71665;SDS011;59503;53.486;10.196;2023-03-07T16:14:03;1.47;;;0.20;;
71665;SDS011;59503;53.486;10.196;2023-03-07T16:16:29;5.57;;;0.40;;
71665;SDS011;59503;53.486;10.196;2023-03-07T16:18:55;6.30;;;0.47;;
71665;SDS011;59503;53.486;10.196;2023-03-07T16:21:24;3.72;;;0.50;;
71665;SDS011;59503;53.486;10.196;2023-03-07T16:23:50;2.53;;;0.50;;
71665;SDS011;59503;53.486;10.196;2023-03-07T16:26:19;5.93;;;0.60;;
71665;SDS011;59503;53.486;10.196;2023-03-07T16:28:50;0.77;;;0.28;;
71665;SDS011;59503;53.486;10.196;2023-03-07T16:31:16;2.95;;;0.30;;
71665;SDS011;59503;53.486;10.196;2023-03-07T16:33:42;7.17;;;0.50;;
71665;SDS011;59503;53.486;10.196;2023-03-07T16:36:09;6.63;;;0.45;;